Time;durP1;ratioP1;P1;durP2;ratioP2;P2;SDS_P1;SDS_P2;PMS_P1;PMS_P2;Temp;Humidity;BMP_temperature;BMP_pressure;BME280_temperature;BME280_humidity;BME280_pressure;Samples;Min_cycle;Max_cycle;Signal;HPM_P1;HPM_P2
2021/09/15 00:00:21;;;;;;;15.07;12.80;;;21.10;92.10;;;;;;5093035;28;20197;-56
2021/09/15 00:02:46;;;;;;;13.13;11.82;;;21.10;92.20;;;;;;5092192;28;20105;-57
2021/09/15 00:05:12;;;;;;;12.32;11.18;;;21.00;92.20;;;;;;5092249;28;20039;-57
2021/09/15 00:07:37;;;;;;;12.80;11.60;;;21.00;92.30;;;;;;5092250;28;20038;-57
2021/09/15 00:10:04;;;;;;;13.23;11.48;;;21.00;92.30;;;;;;5092288;28;20036;-57
2021/09/15 00:12:30;;;;;;;12.70;11.23;;;21.00;92.40;;;;;;5092189;28;20074;-56
2021/09/15 00:14:55;;;;;;;12.50;10.77;;;21.00;92.40;;;;;;5092349;28;20032;-58
2021/09/15 00:17:21;;;;;;;12.63;11.43;;;21.00;92.40;;;;;;5092559;28;20139;-58
2021/09/15 00:19:47;;;;;;;12.27;10.90;;;21.00;92.30;;;;;;5092321;28;20043;-53
2021/09/15 00:22:12;;;;;;;11.77;10.68;;;21.10;92.30;;;;;;5091687;28;20044;-55
2021/09/15 00:24:38;;;;;;;11.90;10.75;;;21.10;92.20;;;;;;5092536;28;20374;-56
2021/09/15 00:27:04;;;;;;;11.77;10.60;;;21.10;92.20;;;;;;5092081;28;20463;-57
2021/09/15 00:29:29;;;;;;;13.73;10.63;;;21.10;92.20;;;;;;5092264;28;20024;-58
2021/09/15 00:31:55;;;;;;;11.68;10.55;;;21.10;92.20;;;;;;5092446;28;20073;-59
2021/09/15 00:34:21;;;;;;;12.55;11.38;;;21.10;92.20;;;;;;5092293;28;20028;-57
2021/09/15 00:36:46;;;;;;;12.35;11.23;;;21.10;92.20;;;;;;5090910;28;20036;-55
2021/09/15 00:39:12;;;;;;;11.80;10.63;;;21.10;92.20;;;;;;5092673;28;20032;-57
2021/09/15 00:41:37;;;;;;;11.27;10.20;;;21.10;92.30;;;;;;5092542;28;20028;-57
2021/09/15 00:44:09;;;;;;;11.85;10.68;;;21.10;92.20;;;;;;5092508;28;20046;-57
2021/09/15 00:46:38;;;;;;;11.73;10.52;;;21.10;92.20;;;;;;5092688;28;20462;-57
2021/09/15 00:49:04;;;;;;;11.25;10.25;;;21.10;92.20;;;;;;5095419;28;20035;-59
2021/09/15 00:51:35;;;;;;;11.18;10.07;;;21.10;92.20;;;;;;5097133;28;20055;-59
2021/09/15 00:54:02;;;;;;;12.32;10.35;;;21.10;92.10;;;;;;5096108;28;20493;-59
2021/09/15 00:56:28;;;;;;;12.63;11.23;;;21.00;92.20;;;;;;5096145;28;20032;-52
2021/09/15 00:58:54;;;;;;;15.20;11.73;;;21.00;92.30;;;;;;5091931;28;20128;-59
2021/09/15 01:01:20;;;;;;;13.48;12.15;;;21.00;92.30;;;;;;5074820;28;20067;-59
2021/09/15 01:03:45;;;;;;;13.60;12.18;;;21.00;92.30;;;;;;5075129;28;20100;-55
2021/09/15 01:06:11;;;;;;;13.20;11.45;;;21.10;92.30;;;;;;5075725;28;20280;-54
2021/09/15 01:08:37;;;;;;;13.18;11.88;;;21.10;92.30;;;;;;5075853;28;20088;-55
2021/09/15 01:11:03;;;;;;;11.70;10.63;;;21.10;92.20;;;;;;5075475;28;20035;-58
2021/09/15 01:13:31;;;;;;;13.05;11.75;;;21.10;92.20;;;;;;5074305;28;20029;-54
2021/09/15 01:15:58;;;;;;;11.57;10.48;;;21.10;92.20;;;;;;5075314;28;20067;-59
2021/09/15 01:18:23;;;;;;;12.07;10.90;;;21.10;92.20;;;;;;5074726;28;20040;-56
2021/09/15 01:20:49;;;;;;;12.32;11.13;;;21.10;92.20;;;;;;5086762;28;20028;-56
2021/09/15 01:23:15;;;;;;;11.75;10.68;;;21.10;92.20;;;;;;5094790;28;20036;-59
2021/09/15 01:25:40;;;;;;;12.02;10.82;;;21.10;92.20;;;;;;5095219;28;20068;-58
2021/09/15 01:28:06;;;;;;;11.50;10.40;;;21.00;92.20;;;;;;5094956;28;20467;-55
2021/09/15 01:30:32;;;;;;;11.48;9.98;;;21.00;92.10;;;;;;5095262;28;20089;-57
2021/09/15 01:32:58;;;;;;;13.23;11.40;;;21.00;92.20;;;;;;5094988;28;20051;-58
2021/09/15 01:35:23;;;;;;;11.77;10.57;;;21.00;92.20;;;;;;5093862;28;20643;-56
2021/09/15 01:37:49;;;;;;;12.15;10.35;;;21.00;92.20;;;;;;5094743;28;20028;-59
2021/09/15 01:40:15;;;;;;;11.20;9.95;;;21.00;92.50;;;;;;5094760;28;20111;-57
2021/09/15 01:42:41;;;;;;;13.68;10.60;;;21.00;92.20;;;;;;5094479;28;20040;-58
2021/09/15 01:45:09;;;;;;;11.00;10.00;;;21.00;92.20;;;;;;5094423;28;20069;-59
2021/09/15 01:47:35;;;;;;;12.02;10.82;;;21.00;92.20;;;;;;5092912;28;20063;-56
2021/09/15 01:50:01;;;;;;;11.77;10.68;;;21.00;92.20;;;;;;5094630;28;20506;-57
2021/09/15 01:52:27;;;;;;;11.60;10.50;;;21.00;92.20;;;;;;5094404;28;20024;-59
2021/09/15 01:54:53;;;;;;;11.90;10.65;;;20.90;92.20;;;;;;5094368;28;20100;-57
2021/09/15 01:57:18;;;;;;;12.32;11.18;;;20.90;92.20;;;;;;5094754;28;20036;-59
2021/09/15 01:59:44;;;;;;;12.52;11.10;;;20.90;92.30;;;;;;5093685;28;20765;-56
2021/09/15 02:02:13;;;;;;;11.93;9.82;;;20.80;92.40;;;;;;5094512;28;20495;-59
2021/09/15 02:04:39;;;;;;;11.50;10.40;;;20.80;92.50;;;;;;5094260;28;20042;-58
2021/09/15 02:07:05;;;;;;;11.13;9.93;;;20.80;92.50;;;;;;5094160;28;20035;-59
2021/09/15 02:09:31;;;;;;;16.77;10.32;;;20.80;92.50;;;;;;5093210;28;20122;-59
2021/09/15 02:11:56;;;;;;;11.52;10.52;;;20.70;92.60;;;;;;5092873;28;20063;-59
2021/09/15 02:14:22;;;;;;;14.90;11.30;;;20.70;92.50;;;;;;5093900;28;20040;-57
2021/09/15 02:16:47;;;;;;;11.60;9.85;;;20.80;92.60;;;;;;5094103;28;20038;-58
2021/09/15 02:19:13;;;;;;;12.15;10.80;;;20.70;92.50;;;;;;5094550;28;20028;-57
2021/09/15 02:21:39;;;;;;;12.65;11.35;;;20.70;92.50;;;;;;5075539;28;20079;-59
2021/09/15 02:24:05;;;;;;;12.80;11.50;;;20.70;92.50;;;;;;5094882;28;20062;-59
2021/09/15 02:26:31;;;;;;;13.15;11.85;;;20.80;92.50;;;;;;5093931;28;20625;-54
2021/09/15 02:29:00;;;;;;;13.10;11.73;;;20.80;92.50;;;;;;5094143;28;20119;-56
2021/09/15 02:31:26;;;;;;;14.38;13.00;;;20.80;92.50;;;;;;5093156;28;20044;-54
2021/09/15 02:33:52;;;;;;;13.68;12.45;;;20.80;92.50;;;;;;5093716;28;20044;-57
2021/09/15 02:36:18;;;;;;;13.23;12.02;;;20.80;92.50;;;;;;5094230;28;20376;-57
2021/09/15 02:38:43;;;;;;;11.70;10.60;;;20.90;92.50;;;;;;5093785;28;20484;-60
2021/09/15 02:41:09;;;;;;;12.48;11.30;;;20.80;92.40;;;;;;5092359;28;20562;-57
2021/09/15 02:43:35;;;;;;;11.80;10.60;;;20.90;92.40;;;;;;5093146;28;20028;-56
2021/09/15 02:46:00;;;;;;;11.55;10.48;;;20.90;92.50;;;;;;5093236;28;20507;-56
2021/09/15 02:48:26;;;;;;;11.77;10.57;;;20.90;92.40;;;;;;5093675;28;20040;-57
2021/09/15 02:50:52;;;;;;;11.13;10.00;;;20.90;92.40;;;;;;5093348;28;20036;-54
2021/09/15 02:53:18;;;;;;;11.45;10.45;;;20.90;92.40;;;;;;5092607;28;20438;-56
2021/09/15 02:55:43;;;;;;;12.20;11.00;;;20.90;92.50;;;;;;5093221;28;20102;-57
2021/09/15 02:58:09;;;;;;;11.20;10.15;;;20.90;92.60;;;;;;5093384;28;20118;-57
2021/09/15 03:00:35;;;;;;;11.93;10.55;;;20.90;92.60;;;;;;5093621;28;20067;-55
2021/09/15 03:03:02;;;;;;;10.60;9.55;;;20.90;92.50;;;;;;5092787;28;20067;-57
2021/09/15 03:05:28;;;;;;;12.75;11.38;;;20.80;92.50;;;;;;5092298;28;20028;-58
2021/09/15 03:07:56;;;;;;;12.88;10.70;;;20.90;92.60;;;;;;5093326;28;20032;-58
2021/09/15 03:10:22;;;;;;;12.13;10.55;;;20.80;92.60;;;;;;5091741;28;20060;-55
2021/09/15 03:12:47;;;;;;;10.75;9.75;;;20.80;92.70;;;;;;5092383;28;20056;-58
2021/09/15 03:15:13;;;;;;;11.23;10.13;;;20.80;92.80;;;;;;5092960;28;20029;-55
2021/09/15 03:17:38;;;;;;;10.93;9.82;;;20.80;93.00;;;;;;5093082;28;20043;-56
2021/09/15 03:20:05;;;;;;;13.60;11.18;;;20.70;93.20;;;;;;5093122;28;20055;-58
2021/09/15 03:22:31;;;;;;;12.95;11.65;;;20.70;93.40;;;;;;5092658;28;20066;-57
2021/09/15 03:24:56;;;;;;;12.15;10.95;;;20.60;93.50;;;;;;5092889;28;20488;-58
2021/09/15 03:27:22;;;;;;;11.30;10.30;;;20.60;93.70;;;;;;5092713;28;20114;-56
2021/09/15 03:29:48;;;;;;;12.73;10.30;;;20.60;93.70;;;;;;5092858;28;20024;-59
2021/09/15 03:32:13;;;;;;;11.10;10.00;;;20.60;93.70;;;;;;5092417;28;20157;-57
2021/09/15 03:34:39;;;;;;;12.45;10.40;;;20.60;93.60;;;;;;5092881;28;20020;-58
2021/09/15 03:37:04;;;;;;;10.90;9.82;;;20.50;93.50;;;;;;5092807;28;20051;-56
2021/09/15 03:39:30;;;;;;;10.25;9.35;;;20.60;93.40;;;;;;5092885;28;20381;-60
2021/09/15 03:41:55;;;;;;;13.55;10.45;;;20.60;93.10;;;;;;5093946;28;20444;-55
2021/09/15 03:44:21;;;;;;;14.45;10.07;;;20.60;93.00;;;;;;5092652;28;20032;-60
2021/09/15 03:46:46;;;;;;;11.75;10.65;;;20.60;93.00;;;;;;5092914;28;20040;-59
2021/09/15 03:49:12;;;;;;;11.75;9.50;;;20.60;92.90;;;;;;5093003;28;20040;-59
2021/09/15 03:51:38;;;;;;;11.98;10.45;;;20.60;92.80;;;;;;5092515;28;20047;-57
2021/09/15 03:54:03;;;;;;;11.60;10.40;;;20.60;92.70;;;;;;5093312;28;20032;-55
2021/09/15 03:56:29;;;;;;;13.40;11.02;;;20.60;92.70;;;;;;5092886;28;20040;-59
2021/09/15 03:58:54;;;;;;;11.30;10.05;;;20.60;92.70;;;;;;5093203;28;20044;-59
2021/09/15 04:01:20;;;;;;;11.75;10.57;;;20.50;92.70;;;;;;5091809;28;20118;-57
2021/09/15 04:03:46;;;;;;;12.00;10.63;;;20.50;92.70;;;;;;5092033;28;20391;-58
2021/09/15 04:06:11;;;;;;;10.93;9.82;;;20.40;92.70;;;;;;5093012;28;20043;-59
2021/09/15 04:08:37;;;;;;;10.02;9.00;;;20.40;92.60;;;;;;5091717;28;20040;-60
2021/09/15 04:11:03;;;;;;;13.30;10.90;;;20.40;92.60;;;;;;5092837;28;20078;-59
2021/09/15 04:13:28;;;;;;;12.43;10.55;;;20.40;92.60;;;;;;5091329;28;20055;-58
2021/09/15 04:15:54;;;;;;;14.23;10.63;;;20.40;92.70;;;;;;5092533;28;20166;-54
2021/09/15 04:18:19;;;;;;;13.65;10.90;;;20.40;92.70;;;;;;5092453;28;20503;-57
2021/09/15 04:20:46;;;;;;;14.07;10.82;;;20.40;92.90;;;;;;5092737;28;20115;-60
2021/09/15 04:23:26;;;;;;;13.65;11.90;;;20.40;92.60;;;;;;5093047;28;20031;-58
2021/09/15 04:31:25;;;;;;;19.55;11.05;;;20.40;92.50;;;;;;5096691;28;20032;-55
2021/09/15 04:33:51;;;;;;;14.65;10.63;;;20.50;92.60;;;;;;5095510;28;20039;-58
2021/09/15 04:36:17;;;;;;;12.70;10.75;;;20.50;92.70;;;;;;5095638;28;20039;-57
2021/09/15 04:38:43;;;;;;;13.05;11.15;;;20.40;92.70;;;;;;5096731;28;20035;-55
2021/09/15 04:41:09;;;;;;;13.85;10.98;;;20.40;92.70;;;;;;5096113;28;20028;-59
2021/09/15 04:43:34;;;;;;;13.80;11.20;;;20.40;92.70;;;;;;5094924;28;20040;-59
2021/09/15 04:46:00;;;;;;;13.30;10.93;;;20.30;92.80;;;;;;5094881;28;20032;-59
2021/09/15 04:48:25;;;;;;;24.15;11.60;;;20.30;92.90;;;;;;5096046;28;20077;-53
2021/09/15 04:50:51;;;;;;;17.88;10.75;;;20.30;92.90;;;;;;5096018;28;20256;-57
2021/09/15 04:53:17;;;;;;;16.27;10.88;;;20.40;92.90;;;;;;5096367;28;20073;-55
2021/09/15 04:55:43;;;;;;;14.52;10.20;;;20.30;92.80;;;;;;5094485;28;20036;-58
2021/09/15 04:58:08;;;;;;;17.65;10.35;;;20.30;92.90;;;;;;5095712;28;20696;-60
2021/09/15 05:00:34;;;;;;;16.13;11.00;;;20.40;92.90;;;;;;5092782;28;20088;-57
2021/09/15 05:03:00;;;;;;;20.08;11.55;;;20.30;93.00;;;;;;5075237;28;20468;-58
2021/09/15 05:05:26;;;;;;;12.27;10.48;;;20.30;93.00;;;;;;5075236;28;20123;-56
2021/09/15 05:07:52;;;;;;;11.02;9.98;;;20.30;93.10;;;;;;5077112;28;20158;-59
2021/09/15 05:10:18;;;;;;;14.98;10.20;;;20.30;93.20;;;;;;5074677;28;20036;-56
2021/09/15 05:12:43;;;;;;;11.80;10.40;;;20.30;93.30;;;;;;5074062;28;20032;-58
2021/09/15 05:15:09;;;;;;;11.60;9.75;;;20.30;93.30;;;;;;5075190;28;20043;-59
2021/09/15 05:17:35;;;;;;;12.90;10.10;;;20.30;93.30;;;;;;5075155;28;20029;-58
2021/09/15 05:20:01;;;;;;;11.38;9.38;;;20.40;93.20;;;;;;5076477;28;20044;-57
2021/09/15 05:22:27;;;;;;;13.32;9.98;;;20.40;93.10;;;;;;5074737;28;20040;-56
2021/09/15 05:24:53;;;;;;;14.68;11.85;;;20.30;93.00;;;;;;5074999;28;20075;-60
2021/09/15 05:27:18;;;;;;;20.95;13.27;;;20.30;93.00;;;;;;5076981;28;20060;-59
2021/09/15 05:29:45;;;;;;;13.02;10.60;;;20.30;92.90;;;;;;5095030;28;20471;-58
2021/09/15 05:32:12;;;;;;;9.75;8.75;;;20.20;92.60;;;;;;5094900;28;20024;-58
2021/09/15 05:34:38;;;;;;;19.77;14.70;;;20.20;92.60;;;;;;5094605;28;20029;-59
2021/09/15 05:37:03;;;;;;;13.98;10.93;;;20.30;92.50;;;;;;5095462;28;20031;-58
2021/09/15 05:39:29;;;;;;;11.48;9.15;;;20.30;92.50;;;;;;5095172;28;20559;-58
2021/09/15 05:41:54;;;;;;;12.65;9.85;;;20.30;92.30;;;;;;5094920;28;20082;-57
2021/09/15 05:44:20;;;;;;;11.35;9.57;;;20.40;92.30;;;;;;5076716;28;20036;-55
2021/09/15 05:46:46;;;;;;;17.65;9.70;;;20.40;92.10;;;;;;5095064;28;20468;-54
2021/09/15 05:49:11;;;;;;;14.07;9.88;;;20.40;92.10;;;;;;5094908;28;20115;-59
2021/09/15 05:51:37;;;;;;;17.60;9.48;;;20.50;92.10;;;;;;5094838;28;20032;-56
2021/09/15 05:54:04;;;;;;;12.98;8.88;;;20.50;92.00;;;;;;5094880;28;20040;-54
2021/09/15 05:56:30;;;;;;;12.60;9.27;;;20.50;91.90;;;;;;5091739;28;20040;-58
2021/09/15 05:58:55;;;;;;;14.32;9.95;;;20.60;91.80;;;;;;5094339;28;20043;-57
2021/09/15 06:01:21;;;;;;;13.18;8.95;;;20.70;91.60;;;;;;5089330;28;20032;-56
2021/09/15 06:03:46;;;;;;;13.13;8.93;;;20.70;91.50;;;;;;5072733;28;20055;-58
2021/09/15 06:06:12;;;;;;;18.10;9.65;;;20.80;91.60;;;;;;5073008;28;20541;-59
2021/09/15 06:08:37;;;;;;;12.55;9.10;;;20.80;91.50;;;;;;5073994;28;20484;-59
2021/09/15 06:11:03;;;;;;;30.08;11.95;;;20.80;91.40;;;;;;5081010;28;20036;-57
2021/09/15 06:13:31;;;;;;;15.68;10.13;;;20.80;91.40;;;;;;5092804;28;20380;-58
2021/09/15 06:15:57;;;;;;;10.68;9.23;;;20.90;91.40;;;;;;5094058;28;20089;-58
2021/09/15 06:18:22;;;;;;;44.63;28.38;;;20.90;91.30;;;;;;5094397;28;20503;-60
2021/09/15 06:20:48;;;;;;;41.10;21.60;;;21.00;91.30;;;;;;5090567;28;20455;-60
2021/09/15 06:23:14;;;;;;;28.67;17.42;;;21.00;91.20;;;;;;5081949;28;20082;-59
2021/09/15 06:25:42;;;;;;;18.08;13.55;;;21.10;91.30;;;;;;5074445;28;20043;-56
2021/09/15 06:28:08;;;;;;;39.78;12.52;;;21.20;91.00;;;;;;5080629;28;20043;-59
2021/09/15 06:30:36;;;;;;;27.98;11.27;;;21.20;90.90;;;;;;5076127;28;20096;-55
2021/09/15 06:33:02;;;;;;;16.08;9.63;;;21.30;90.80;;;;;;5082406;28;20067;-60
2021/09/15 06:35:28;;;;;;;11.30;9.35;;;21.40;90.70;;;;;;5073388;28;20047;-58
2021/09/15 06:37:53;;;;;;;14.27;10.82;;;21.40;90.60;;;;;;5073975;28;20036;-60
2021/09/15 06:40:19;;;;;;;16.25;9.45;;;21.40;90.50;;;;;;5087710;28;20117;-58
2021/09/15 06:42:44;;;;;;;22.33;9.40;;;21.50;90.50;;;;;;5093281;28;20372;-59
2021/09/15 06:45:10;;;;;;;13.10;8.82;;;21.60;90.40;;;;;;5093811;28;20447;-56
2021/09/15 06:47:44;;;;;;;10.77;9.32;;;21.70;90.30;;;;;;5093057;28;20495;-59
2021/09/15 06:50:12;;;;;;;22.33;11.18;;;21.90;90.10;;;;;;5087305;28;20044;-56
2021/09/15 06:52:38;;;;;;;14.50;10.30;;;21.90;90.00;;;;;;5073757;28;20027;-59
2021/09/15 06:55:06;;;;;;;12.02;9.80;;;21.90;89.90;;;;;;5083337;28;20119;-57
2021/09/15 06:57:31;;;;;;;9.93;8.90;;;21.90;89.90;;;;;;5093262;28;20487;-60
2021/09/15 06:59:57;;;;;;;11.45;9.93;;;22.00;89.90;;;;;;5093571;28;20046;-59
2021/09/15 07:02:22;;;;;;;10.75;8.98;;;22.00;89.70;;;;;;5093088;28;20127;-58
2021/09/15 07:04:48;;;;;;;13.18;10.27;;;22.00;89.70;;;;;;5086924;28;20035;-57
2021/09/15 07:07:14;;;;;;;11.45;10.30;;;22.00;89.50;;;;;;5076684;28;20040;-59
2021/09/15 07:09:39;;;;;;;10.65;9.55;;;22.00;89.40;;;;;;5083245;28;20029;-58
2021/09/15 07:12:05;;;;;;;13.70;10.93;;;22.00;89.40;;;;;;5072504;28;20036;-57
2021/09/15 07:14:31;;;;;;;14.30;12.18;;;22.00;89.50;;;;;;5073038;28;20025;-58
2021/09/15 07:16:56;;;;;;;17.92;12.10;;;22.00;89.60;;;;;;5072761;28;20392;-56
2021/09/15 07:19:22;;;;;;;13.82;11.10;;;22.00;89.70;;;;;;5086378;28;20036;-58
2021/09/15 07:21:47;;;;;;;14.10;10.40;;;22.00;89.80;;;;;;5103961;28;20085;-58
2021/09/15 07:24:13;;;;;;;14.85;9.82;;;22.00;90.00;;;;;;5103551;28;20081;-56
2021/09/15 07:26:39;;;;;;;20.05;10.80;;;21.90;90.10;;;;;;5091773;28;20040;-57
2021/09/15 07:29:04;;;;;;;13.50;10.13;;;21.90;90.30;;;;;;5091188;28;20098;-57
2021/09/15 07:31:35;;;;;;;12.30;9.93;;;22.00;90.20;;;;;;5090423;28;20091;-54
2021/09/15 07:34:01;;;;;;;13.48;10.70;;;22.00;90.20;;;;;;5089345;28;20077;-55
2021/09/15 07:36:26;;;;;;;18.98;11.57;;;22.00;90.20;;;;;;5091974;28;20035;-54
2021/09/15 07:38:52;;;;;;;13.70;10.60;;;22.10;90.30;;;;;;5093305;28;20038;-50
2021/09/15 07:41:18;;;;;;;12.45;11.15;;;22.10;90.40;;;;;;5079020;28;20067;-54
2021/09/15 07:43:43;;;;;;;14.73;12.00;;;22.10;90.40;;;;;;5091813;28;20036;-57
2021/09/15 07:46:09;;;;;;;16.52;11.18;;;22.10;90.50;;;;;;5076836;28;20024;-56
2021/09/15 07:48:34;;;;;;;13.63;11.02;;;22.10;90.50;;;;;;5072522;28;20033;-50
2021/09/15 07:51:00;;;;;;;21.38;12.02;;;22.10;90.60;;;;;;5072645;28;20107;-56
2021/09/15 07:53:25;;;;;;;18.70;11.65;;;22.10;90.80;;;;;;5073011;28;20023;-53
2021/09/15 07:55:51;;;;;;;21.65;12.68;;;22.20;90.60;;;;;;5084138;28;20044;-48
2021/09/15 07:58:17;;;;;;;29.90;14.95;;;22.40;90.60;;;;;;5094015;28;20060;-51
2021/09/15 08:00:42;;;;;;;19.33;13.05;;;22.30;90.70;;;;;;5096082;28;20048;-51
2021/09/15 08:03:08;;;;;;;19.90;13.52;;;22.40;90.70;;;;;;5096477;28;20136;-57
2021/09/15 08:05:34;;;;;;;28.30;13.15;;;22.40;90.90;;;;;;5096969;28;20035;-56
2021/09/15 08:08:01;;;;;;;18.83;11.90;;;22.40;90.80;;;;;;5096345;28;20672;-51
2021/09/15 08:10:27;;;;;;;22.92;11.77;;;22.50;90.80;;;;;;5096546;28;20089;-51
2021/09/15 08:12:52;;;;;;;25.55;12.18;;;22.50;90.70;;;;;;5096414;28;20032;-56
2021/09/15 08:15:18;;;;;;;20.25;11.45;;;22.60;90.70;;;;;;5095534;28;20060;-53
2021/09/15 08:17:44;;;;;;;15.82;11.07;;;22.60;90.80;;;;;;5096419;28;20131;-52
2021/09/15 08:20:10;;;;;;;17.90;12.07;;;22.60;90.90;;;;;;5096189;28;20433;-48
2021/09/15 08:22:35;;;;;;;11.48;10.32;;;22.70;91.10;;;;;;5095898;28;20036;-50
2021/09/15 08:25:01;;;;;;;12.57;11.13;;;22.60;91.00;;;;;;5096052;28;20038;-52
2021/09/15 08:27:27;;;;;;;14.85;10.52;;;22.60;91.10;;;;;;5095711;28;20035;-54
2021/09/15 08:29:53;;;;;;;12.65;10.40;;;22.60;90.90;;;;;;5096303;28;20028;-54
2021/09/15 08:32:18;;;;;;;11.00;9.13;;;22.70;90.60;;;;;;5095875;28;20067;-50
2021/09/15 08:34:44;;;;;;;11.35;8.77;;;22.80;90.50;;;;;;5095973;28;20715;-52
2021/09/15 08:37:10;;;;;;;13.07;8.70;;;22.80;90.10;;;;;;5096388;28;20028;-49
2021/09/15 08:39:35;;;;;;;15.90;9.35;;;22.80;89.70;;;;;;5096009;28;20028;-49
2021/09/15 08:42:01;;;;;;;16.42;8.52;;;22.80;90.00;;;;;;5096069;28;20028;-52
2021/09/15 08:44:27;;;;;;;17.98;8.90;;;22.90;90.00;;;;;;5095857;28;20345;-56
2021/09/15 08:46:56;;;;;;;11.68;8.80;;;22.90;89.70;;;;;;5095837;28;20153;-55
2021/09/15 08:49:23;;;;;;;9.93;8.68;;;22.90;89.70;;;;;;5096023;28;20028;-54
2021/09/15 08:51:48;;;;;;;11.38;8.75;;;22.90;89.50;;;;;;5095678;28;20048;-49
2021/09/15 08:54:14;;;;;;;16.20;9.43;;;22.90;89.40;;;;;;5095655;28;20063;-54
2021/09/15 08:56:41;;;;;;;11.85;8.60;;;22.80;89.60;;;;;;5095877;28;20495;-53
2021/09/15 08:59:07;;;;;;;16.42;9.98;;;22.80;90.10;;;;;;5095937;28;20465;-56
2021/09/15 09:01:32;;;;;;;13.70;8.80;;;22.80;90.10;;;;;;5095501;28;20028;-55
2021/09/15 09:03:58;;;;;;;9.68;8.60;;;22.90;90.10;;;;;;5095269;28;20103;-53
2021/09/15 09:06:31;;;;;;;10.32;8.57;;;22.90;90.20;;;;;;5090308;28;20036;-55
2021/09/15 09:08:58;;;;;;;14.18;8.88;;;22.90;90.10;;;;;;5075077;28;20053;-54
2021/09/15 09:11:26;;;;;;;10.85;8.35;;;23.00;90.40;;;;;;5076133;28;20028;-54
2021/09/15 09:14:00;;;;;;;9.52;8.52;;;23.00;90.20;;;;;;5075278;28;20059;-52
2021/09/15 09:16:49;;;;;;;17.83;8.55;;;23.10;90.20;;;;;;5075567;28;20591;-51
2021/09/15 09:19:16;;;;;;;9.73;8.27;;;23.20;90.20;;;;;;5075270;28;20032;-50
2021/09/15 09:21:48;;;;;;;11.35;9.02;;;23.20;90.40;;;;;;5094087;28;20024;-56
2021/09/15 09:24:21;;;;;;;12.48;9.43;;;23.20;90.30;;;;;;5095635;28;20449;-59
2021/09/15 09:26:47;;;;;;;11.10;8.87;;;23.20;90.40;;;;;;5095497;28;20063;-50
2021/09/15 09:29:21;;;;;;;13.77;8.75;;;23.10;90.40;;;;;;5095011;28;20054;-54
2021/09/15 09:32:02;;;;;;;11.30;8.90;;;23.20;90.60;;;;;;5094449;28;20081;-50
2021/09/15 09:34:29;;;;;;;13.02;9.73;;;23.20;90.40;;;;;;5095878;28;20016;-49
2021/09/15 09:37:09;;;;;;;11.98;8.90;;;23.10;90.60;;;;;;5095238;28;20043;-50
2021/09/15 09:39:41;;;;;;;13.15;9.25;;;23.20;90.60;;;;;;5095503;28;20039;-51
2021/09/15 09:42:21;;;;;;;11.88;8.80;;;23.20;90.60;;;;;;5095106;28;20036;-57
2021/09/15 09:44:47;;;;;;;15.27;8.60;;;23.20;90.60;;;;;;5093702;28;20024;-51
2021/09/15 09:47:24;;;;;;;15.18;9.70;;;23.00;90.60;;;;;;5094641;28;20552;-54
2021/09/15 09:50:01;;;;;;;11.02;8.00;;;23.00;91.10;;;;;;5095264;28;20044;-50
2021/09/15 09:52:27;;;;;;;12.18;8.27;;;22.90;91.40;;;;;;5094884;28;20113;-56
2021/09/15 09:55:02;;;;;;;15.23;9.18;;;22.80;91.40;;;;;;5095517;28;20395;-50
2021/09/15 09:57:28;;;;;;;23.42;10.82;;;22.70;92.10;;;;;;5095238;28;20093;-52
2021/09/15 09:59:58;;;;;;;21.05;11.20;;;22.40;93.20;;;;;;5094825;28;20119;-50
2021/09/15 10:02:24;;;;;;;16.13;10.73;;;22.20;93.70;;;;;;5094637;28;20040;-53
2021/09/15 10:04:49;;;;;;;13.20;9.73;;;22.00;94.20;;;;;;5094554;28;20028;-49
2021/09/15 10:07:16;;;;;;;13.55;10.18;;;21.70;94.90;;;;;;5094366;28;20100;-58
2021/09/15 10:09:44;;;;;;;11.80;10.48;;;21.50;95.50;;;;;;5094342;28;20039;-52
2021/09/15 10:12:11;;;;;;;16.63;12.10;;;21.40;95.90;;;;;;5093675;28;20064;-53
2021/09/15 10:14:38;;;;;;;14.57;10.93;;;21.20;96.60;;;;;;5094606;28;20035;-58
2021/09/15 10:17:07;;;;;;;13.27;11.73;;;21.10;97.00;;;;;;5094554;28;20036;-62
2021/09/15 10:19:38;;;;;;;16.02;12.50;;;20.90;97.60;;;;;;5093804;28;20042;-64
2021/09/15 10:22:05;;;;;;;16.42;12.65;;;20.60;98.40;;;;;;5092705;28;20038;-64
2021/09/15 10:24:53;;;;;;;19.92;13.00;;;20.60;98.90;;;;;;5094807;28;20030;-62
2021/09/15 10:27:21;;;;;;;17.90;13.00;;;20.60;99.10;;;;;;5087887;28;20037;-64
2021/09/15 10:30:07;;;;;;;17.77;12.50;;;20.70;99.10;;;;;;5094682;28;20036;-63
2021/09/15 10:32:35;;;;;;;17.80;13.18;;;20.80;99.10;;;;;;5093908;28;20028;-64
2021/09/15 10:35:03;;;;;;;16.10;12.50;;;20.90;99.00;;;;;;5093899;28;20028;-64
2021/09/15 10:37:31;;;;;;;20.52;13.38;;;20.90;99.20;;;;;;5093902;28;20475;-62
2021/09/15 10:40:08;;;;;;;16.77;12.52;;;20.90;99.20;;;;;;5093879;28;20471;-63
2021/09/15 10:42:34;;;;;;;16.27;12.15;;;21.10;99.30;;;;;;5093803;28;20119;-58
2021/09/15 10:45:23;;;;;;;17.88;12.40;;;21.20;99.10;;;;;;5094174;28;20067;-60
2021/09/15 10:47:49;;;;;;;20.15;13.02;;;21.20;99.00;;;;;;5093823;28;20101;-61
2021/09/15 10:50:30;;;;;;;21.73;14.07;;;21.30;99.10;;;;;;5093903;28;20074;-61
2021/09/15 10:53:08;;;;;;;20.88;13.10;;;21.20;99.30;;;;;;5093300;28;20030;-61
2021/09/15 10:55:45;;;;;;;15.48;12.80;;;21.20;99.40;;;;;;5093794;28;20415;-61
2021/09/15 10:58:21;;;;;;;17.55;14.32;;;21.10;99.60;;;;;;5093718;28;20039;-63
2021/09/15 11:01:01;;;;;;;16.25;13.25;;;21.00;99.80;;;;;;5096779;28;20024;-58
2021/09/15 11:03:34;;;;;;;16.67;12.98;;;20.90;99.90;;;;;;5072808;28;20040;-59
2021/09/15 11:06:05;;;;;;;17.63;13.93;;;21.00;99.90;;;;;;5073443;28;20032;-53
2021/09/15 11:08:34;;;;;;;18.63;14.55;;;21.10;99.90;;;;;;5073097;28;20024;-54
2021/09/15 11:11:02;;;;;;;15.13;13.48;;;21.00;99.90;;;;;;5073523;28;20119;-59
2021/09/15 11:13:28;;;;;;;15.48;13.88;;;20.90;99.90;;;;;;5073284;28;20032;-55
2021/09/15 11:15:54;;;;;;;18.48;14.75;;;20.80;99.90;;;;;;5073226;28;20563;-52
2021/09/15 11:18:27;;;;;;;19.08;14.20;;;20.80;99.90;;;;;;5073096;28;20032;-55
2021/09/15 11:20:55;;;;;;;16.17;14.57;;;20.80;99.90;;;;;;5085994;28;20119;-55
2021/09/15 11:23:25;;;;;;;18.48;15.63;;;20.90;99.90;;;;;;5093343;28;20114;-57
2021/09/15 11:25:51;;;;;;;21.33;16.13;;;20.80;99.90;;;;;;5093713;28;20047;-54
2021/09/15 11:28:19;;;;;;;17.13;14.38;;;20.80;99.90;;;;;;5093233;28;20056;-55
2021/09/15 11:30:50;;;;;;;19.10;15.15;;;20.90;99.90;;;;;;5093512;28;20085;-54
2021/09/15 11:33:24;;;;;;;19.55;16.20;;;20.90;99.90;;;;;;5093032;28;20016;-53
2021/09/15 11:35:58;;;;;;;22.02;15.98;;;21.00;99.90;;;;;;5093301;28;20028;-55
2021/09/15 11:38:26;;;;;;;25.90;16.85;;;21.10;99.90;;;;;;5091064;28;20028;-57
2021/09/15 11:40:52;;;;;;;22.08;16.58;;;21.10;99.90;;;;;;5092997;28;20039;-55
2021/09/15 11:43:20;;;;;;;22.65;15.68;;;21.20;99.90;;;;;;5092862;28;20383;-54
2021/09/15 11:45:48;;;;;;;23.25;16.00;;;21.30;99.90;;;;;;5093228;28;20024;-56
2021/09/15 11:48:28;;;;;;;23.70;15.73;;;21.40;99.90;;;;;;5093134;28;20024;-59
2021/09/15 11:50:54;;;;;;;17.02;14.55;;;21.50;99.90;;;;;;5093150;28;20028;-58
2021/09/15 11:53:21;;;;;;;16.05;14.55;;;21.50;99.90;;;;;;5093083;28;20408;-57
2021/09/15 11:55:57;;;;;;;16.38;14.80;;;21.60;99.90;;;;;;5093277;28;20031;-53
2021/09/15 11:58:25;;;;;;;17.02;14.48;;;21.60;99.90;;;;;;5093295;28;20536;-50
2021/09/15 12:00:51;;;;;;;14.50;13.18;;;21.70;99.90;;;;;;5093136;28;20038;-57
2021/09/15 12:03:27;;;;;;;14.30;12.85;;;21.80;99.90;;;;;;5092330;28;20399;-51
2021/09/15 12:05:58;;;;;;;15.70;14.20;;;22.00;99.90;;;;;;5093146;28;20040;-54
2021/09/15 12:08:25;;;;;;;16.27;14.77;;;22.30;99.90;;;;;;5093042;28;20028;-58
2021/09/15 12:10:56;;;;;;;14.85;13.32;;;22.40;99.90;;;;;;5093467;28;20111;-57
2021/09/15 12:13:32;;;;;;;17.13;14.88;;;22.50;99.90;;;;;;5072869;28;20087;-60
2021/09/15 12:15:58;;;;;;;17.92;14.73;;;22.50;99.90;;;;;;5071436;28;20384;-60
2021/09/15 12:18:42;;;;;;;16.38;14.68;;;22.40;99.90;;;;;;5072526;28;20025;-60
2021/09/15 12:21:19;;;;;;;21.00;18.75;;;22.40;99.90;;;;;;5085803;28;20040;-60
2021/09/15 12:23:45;;;;;;;19.33;17.42;;;22.30;99.90;;;;;;5092458;28;20134;-63
2021/09/15 12:26:11;;;;;;;20.27;18.08;;;22.20;99.90;;;;;;5092908;28;20047;-62
2021/09/15 12:28:38;;;;;;;19.90;18.00;;;22.00;99.90;;;;;;5092742;28;20039;-62
2021/09/15 12:31:04;;;;;;;18.92;16.95;;;22.00;99.90;;;;;;5092482;28;20032;-60
2021/09/15 12:33:38;;;;;;;20.02;17.75;;;22.00;99.90;;;;;;5092700;28;20035;-63
2021/09/15 12:36:14;;;;;;;;;;;22.00;99.90;;;;;;5092824;28;20024;-62